Stotfold, United Kingdom
Current Conditions -  °F | °C
As of 7:50 AM on Tuesday 21 Oct 2014 (Local Time) from EGGW Reporting Station
Overcast Overcast  
Wind Chill: 55°   Ceiling: 1500
Heat Index: 55°   Visibility: 6mi
Dew Point: 54°   Wind: 22mph
Humidity: 94%   Direction: 230°SW
Pressure: 29.5"   Gusts: NA
Location:  52.02°N, 0.23°W
Report Text: EGGW 210650Z 23019KT 9999 BKN015 OVC036 13/12 Q0999
Loading
Personal Weather Stations






























Interactive Weather Map
Tropical Storm Tracking
New forecast layout! Learn more

10-Day Weather Forecast

Advertisements
Track Severe Weather on mobile